sensor_id;sensor_type;location;lat;lon;timestamp;pressure;altitude;pressure_sealevel;temperature;humidity
84143;BME280;74260;50.772;7.730;2024-03-02T00:00:00;97454.16;;;7.59;80.11
84143;BME280;74260;50.772;7.730;2024-03-02T00:00:32;97456.72;;;7.59;80.46
84143;BME280;74260;50.772;7.730;2024-03-02T00:01:03;97456.50;;;7.56;81.11
84143;BME280;74260;50.772;7.730;2024-03-02T00:01:34;97458.81;;;7.53;81.27
84143;BME280;74260;50.772;7.730;2024-03-02T00:02:06;97445.56;;;7.47;81.23
84143;BME280;74260;50.772;7.730;2024-03-02T00:02:44;97455.03;;;7.48;80.78
84143;BME280;74260;50.772;7.730;2024-03-02T00:03:17;97449.56;;;7.43;81.26
84143;BME280;74260;50.772;7.730;2024-03-02T00:03:48;97454.25;;;7.49;81.27
84143;BME280;74260;50.772;7.730;2024-03-02T00:04:18;97449.34;;;7.52;80.55
84143;BME280;74260;50.772;7.730;2024-03-02T00:04:49;97429.81;;;7.42;80.43
84143;BME280;74260;50.772;7.730;2024-03-02T00:05:20;97451.13;;;7.53;80.30
84143;BME280;74260;50.772;7.730;2024-03-02T00:05:53;97447.69;;;7.52;80.23
84143;BME280;74260;50.772;7.730;2024-03-02T00:06:23;97462.28;;;7.65;79.94
84143;BME280;74260;50.772;7.730;2024-03-02T00:06:55;97453.34;;;7.60;80.15
84143;BME280;74260;50.772;7.730;2024-03-02T00:07:25;97454.38;;;7.62;80.06
84143;BME280;74260;50.772;7.730;2024-03-02T00:07:59;97455.72;;;7.57;80.50
84143;BME280;74260;50.772;7.730;2024-03-02T00:08:30;97461.72;;;7.57;80.58
84143;BME280;74260;50.772;7.730;2024-03-02T00:09:01;97456.25;;;7.53;80.06
84143;BME280;74260;50.772;7.730;2024-03-02T00:09:31;97456.03;;;7.50;80.46
84143;BME280;74260;50.772;7.730;2024-03-02T00:10:09;97457.38;;;7.56;80.12
84143;BME280;74260;50.772;7.730;2024-03-02T00:10:42;97458.69;;;7.51;80.86
84143;BME280;74260;50.772;7.730;2024-03-02T00:11:12;97453.03;;;7.55;80.66
84143;BME280;74260;50.772;7.730;2024-03-02T00:11:45;97441.66;;;7.52;80.40
84143;BME280;74260;50.772;7.730;2024-03-02T00:12:15;97456.25;;;7.53;80.62
84143;BME280;74260;50.772;7.730;2024-03-02T00:12:47;97453.25;;;7.47;81.06
84143;BME280;74260;50.772;7.730;2024-03-02T00:13:20;97443.22;;;7.38;80.90
84143;BME280;74260;50.772;7.730;2024-03-02T00:13:53;97454.47;;;7.40;81.11
84143;BME280;74260;50.772;7.730;2024-03-02T00:14:24;97460.16;;;7.36;80.98
84143;BME280;74260;50.772;7.730;2024-03-02T00:14:55;97461.47;;;7.43;80.93
84143;BME280;74260;50.772;7.730;2024-03-02T00:16:12;97432.16;;;7.39;80.46
84143;BME280;74260;50.772;7.730;2024-03-02T00:16:43;97462.59;;;7.58;80.10
84143;BME280;74260;50.772;7.730;2024-03-02T00:17:17;97469.53;;;7.59;80.20
84143;BME280;74260;50.772;7.730;2024-03-02T00:17:54;97450.09;;;7.51;79.78
84143;BME280;74260;50.772;7.730;2024-03-02T00:18:27;97458.94;;;7.66;79.59
84143;BME280;74260;50.772;7.730;2024-03-02T00:19:03;97464.28;;;7.69;79.64
84143;BME280;74260;50.772;7.730;2024-03-02T00:19:38;97460.28;;;7.61;79.97
84143;BME280;74260;50.772;7.730;2024-03-02T00:20:09;97465.53;;;7.62;79.87
84143;BME280;74260;50.772;7.730;2024-03-02T00:20:41;97463.59;;;7.60;80.16
84143;BME280;74260;50.772;7.730;2024-03-02T00:21:11;97464.94;;;7.66;79.77
84143;BME280;74260;50.772;7.730;2024-03-02T00:21:43;97472.53;;;7.65;79.67
84143;BME280;74260;50.772;7.730;2024-03-02T00:22:13;97460.94;;;7.58;79.85
84143;BME280;74260;50.772;7.730;2024-03-02T00:22:44;97449.34;;;7.52;79.95
84143;BME280;74260;50.772;7.730;2024-03-02T00:23:15;97464.41;;;7.59;80.01
84143;BME280;74260;50.772;7.730;2024-03-02T00:23:48;97470.53;;;7.61;80.31
84143;BME280;74260;50.772;7.730;2024-03-02T00:24:31;97469.84;;;7.63;79.94
84143;BME280;74260;50.772;7.730;2024-03-02T00:25:03;97446.56;;;7.49;79.80
84143;BME280;74260;50.772;7.730;2024-03-02T00:26:11;97468.75;;;7.60;79.93
84143;BME280;74260;50.772;7.730;2024-03-02T00:26:45;97462.16;;;7.52;80.28
84143;BME280;74260;50.772;7.730;2024-03-02T00:27:17;97462.16;;;7.52;80.35
84143;BME280;74260;50.772;7.730;2024-03-02T00:27:50;97462.72;;;7.48;80.70
84143;BME280;74260;50.772;7.730;2024-03-02T00:28:34;97474.09;;;7.51;80.56
84143;BME280;74260;50.772;7.730;2024-03-02T00:29:05;97474.75;;;7.49;81.09
84143;BME280;74260;50.772;7.730;2024-03-02T00:29:35;97459.13;;;7.46;80.39
84143;BME280;74260;50.772;7.730;2024-03-02T00:31:08;97445.56;;;7.47;80.26
84143;BME280;74260;50.772;7.730;2024-03-02T00:31:39;97473.44;;;7.54;80.28
84143;BME280;74260;50.772;7.730;2024-03-02T00:32:13;97467.41;;;7.53;80.41
84143;BME280;74260;50.772;7.730;2024-03-02T00:32:45;97460.94;;;7.47;80.67
84143;BME280;74260;50.772;7.730;2024-03-02T00:33:15;97464.50;;;7.49;81.12
84143;BME280;74260;50.772;7.730;2024-03-02T00:33:49;97466.06;;;7.47;80.79
84143;BME280;74260;50.772;7.730;2024-03-02T00:34:19;97473.19;;;7.51;80.09
84143;BME280;74260;50.772;7.730;2024-03-02T00:34:50;97471.41;;;7.50;80.70
84143;BME280;74260;50.772;7.730;2024-03-02T00:35:22;97457.25;;;7.43;80.42
84143;BME280;74260;50.772;7.730;2024-03-02T00:35:54;97468.53;;;7.57;80.03
84143;BME280;74260;50.772;7.730;2024-03-02T00:36:26;97455.13;;;7.49;80.02
84143;BME280;74260;50.772;7.730;2024-03-02T00:36:57;97468.63;;;7.58;80.15
84143;BME280;74260;50.772;7.730;2024-03-02T00:37:29;97470.88;;;7.54;80.58
84143;BME280;74260;50.772;7.730;2024-03-02T00:38:06;97473.66;;;7.57;80.13
84143;BME280;74260;50.772;7.730;2024-03-02T00:38:47;97464.38;;;7.47;80.07
84143;BME280;74260;50.772;7.730;2024-03-02T00:39:19;97463.50;;;7.47;80.46
84143;BME280;74260;50.772;7.730;2024-03-02T00:39:51;97471.63;;;7.53;80.26
84143;BME280;74260;50.772;7.730;2024-03-02T00:40:21;97470.50;;;7.49;80.38
84143;BME280;74260;50.772;7.730;2024-03-02T00:40:52;97470.97;;;7.55;80.00
84143;BME280;74260;50.772;7.730;2024-03-02T00:41:30;97478.56;;;7.54;80.55
84143;BME280;74260;50.772;7.730;2024-03-02T00:42:01;97461.16;;;7.50;80.24
84143;BME280;74260;50.772;7.730;2024-03-02T00:42:31;97469.84;;;7.52;80.52
84143;BME280;74260;50.772;7.730;2024-03-02T00:43:02;97468.84;;;7.50;80.54
84143;BME280;74260;50.772;7.730;2024-03-02T00:44:10;97471.63;;;7.53;80.98
84143;BME280;74260;50.772;7.730;2024-03-02T00:44:36;97479.09;;;7.50;81.12
84143;BME280;74260;50.772;7.730;2024-03-02T00:45:07;97464.50;;;7.49;80.63
84143;BME280;74260;50.772;7.730;2024-03-02T00:45:40;97481.66;;;7.61;80.17
84143;BME280;74260;50.772;7.730;2024-03-02T00:46:12;97471.88;;;7.56;79.96
84143;BME280;74260;50.772;7.730;2024-03-02T00:46:43;97463.19;;;7.54;80.31
84143;BME280;74260;50.772;7.730;2024-03-02T00:47:14;97468.94;;;7.51;80.82
84143;BME280;74260;50.772;7.730;2024-03-02T00:47:44;97471.97;;;7.57;81.13
84143;BME280;74260;50.772;7.730;2024-03-02T00:48:15;97471.19;;;7.58;80.76
84143;BME280;74260;50.772;7.730;2024-03-02T00:48:54;97470.06;;;7.55;80.71
84143;BME280;74260;50.772;7.730;2024-03-02T00:49:25;97463.72;;;7.50;80.84
84143;BME280;74260;50.772;7.730;2024-03-02T00:49:56;97457.81;;;7.51;80.98
84143;BME280;74260;50.772;7.730;2024-03-02T00:50:27;97466.19;;;7.60;80.75
84143;BME280;74260;50.772;7.730;2024-03-02T00:50:57;97459.81;;;7.55;80.65
84143;BME280;74260;50.772;7.730;2024-03-02T00:51:29;97466.19;;;7.60;80.24
84143;BME280;74260;50.772;7.730;2024-03-02T00:52:00;97462.84;;;7.61;80.71
84143;BME280;74260;50.772;7.730;2024-03-02T00:52:31;97467.19;;;7.62;79.82
84143;BME280;74260;50.772;7.730;2024-03-02T00:53:03;97461.72;;;7.57;80.42
84143;BME280;74260;50.772;7.730;2024-03-02T00:53:33;97457.84;;;7.62;80.69
84143;BME280;74260;50.772;7.730;2024-03-02T00:54:05;97453.56;;;7.63;79.97
84143;BME280;74260;50.772;7.730;2024-03-02T00:54:36;97467.50;;;7.66;79.98
84143;BME280;74260;50.772;7.730;2024-03-02T00:55:07;97455.38;;;7.64;80.26
84143;BME280;74260;50.772;7.730;2024-03-02T00:55:38;97452.47;;;7.59;80.16
84143;BME280;74260;50.772;7.730;2024-03-02T00:56:11;97462.28;;;7.65;80.47
84143;BME280;74260;50.772;7.730;2024-03-02T00:56:42;97445.34;;;7.55;79.83
84143;BME280;74260;50.772;7.730;2024-03-02T00:57:12;97452.47;;;7.59;80.25
84143;BME280;74260;50.772;7.730;2024-03-02T00:57:43;97460.50;;;7.64;80.68
84143;BME280;74260;50.772;7.730;2024-03-02T00:58:14;97456.94;;;7.62;80.36
84143;BME280;74260;50.772;7.730;2024-03-02T00:58:46;97458.25;;;7.68;80.66
84143;BME280;74260;50.772;7.730;2024-03-02T00:59:17;97454.69;;;7.66;80.20
84143;BME280;74260;50.772;7.730;2024-03-02T00:59:47;97458.03;;;7.65;80.53
84143;BME280;74260;50.772;7.730;2024-03-02T01:00:19;97456.38;;;7.66;79.76
84143;BME280;74260;50.772;7.730;2024-03-02T01:00:49;97450.69;;;7.70;79.58
84143;BME280;74260;50.772;7.730;2024-03-02T01:01:20;97461.06;;;7.71;79.93
84143;BME280;74260;50.772;7.730;2024-03-02T01:01:51;97456.28;;;7.76;79.79
84143;BME280;74260;50.772;7.730;2024-03-02T01:02:21;97455.38;;;7.75;79.73
84143;BME280;74260;50.772;7.730;2024-03-02T01:02:52;97449.34;;;7.75;79.57
84143;BME280;74260;50.772;7.730;2024-03-02T01:03:22;97431.28;;;7.62;79.66
84143;BME280;74260;50.772;7.730;2024-03-02T01:03:53;97450.44;;;7.78;79.08
84143;BME280;74260;50.772;7.730;2024-03-02T01:04:23;97446.44;;;7.82;79.35
84143;BME280;74260;50.772;7.730;2024-03-02T01:04:53;97439.75;;;7.84;79.04
84143;BME280;74260;50.772;7.730;2024-03-02T01:05:24;97443.31;;;7.86;78.81
84143;BME280;74260;50.772;7.730;2024-03-02T01:05:55;97456.34;;;7.89;78.96
84143;BME280;74260;50.772;7.730;2024-03-02T01:06:26;97458.06;;;7.88;78.73
84143;BME280;74260;50.772;7.730;2024-03-02T01:06:56;97443.78;;;7.92;79.03
84143;BME280;74260;50.772;7.730;2024-03-02T01:07:28;97440.22;;;7.90;78.63
84143;BME280;74260;50.772;7.730;2024-03-02T01:08:00;97432.06;;;7.84;78.37
84143;BME280;74260;50.772;7.730;2024-03-02T01:08:30;97445.44;;;7.91;78.63
84143;BME280;74260;50.772;7.730;2024-03-02T01:09:02;97443.56;;;8.00;78.28
84143;BME280;74260;50.772;7.730;2024-03-02T01:09:35;97439.38;;;8.02;77.70
84143;BME280;74260;50.772;7.730;2024-03-02T01:10:12;97443.88;;;8.05;77.87
84143;BME280;74260;50.772;7.730;2024-03-02T01:10:44;97420.81;;;7.93;77.75
84143;BME280;74260;50.772;7.730;2024-03-02T01:11:14;97434.16;;;8.01;77.59
84143;BME280;74260;50.772;7.730;2024-03-02T01:11:45;97429.03;;;8.01;76.98
84143;BME280;74260;50.772;7.730;2024-03-02T01:12:15;97433.91;;;8.09;77.22
84143;BME280;74260;50.772;7.730;2024-03-02T01:12:45;97428.69;;;8.08;76.99
84143;BME280;74260;50.772;7.730;2024-03-02T01:13:16;97441.75;;;8.11;76.84
84143;BME280;74260;50.772;7.730;2024-03-02T01:13:46;97435.63;;;8.09;77.24
84143;BME280;74260;50.772;7.730;2024-03-02T01:14:18;97432.81;;;8.06;77.20
84143;BME280;74260;50.772;7.730;2024-03-02T01:14:48;97429.28;;;8.04;77.90
84143;BME280;74260;50.772;7.730;2024-03-02T01:15:22;97441.28;;;8.05;77.43
84143;BME280;74260;50.772;7.730;2024-03-02T01:16:15;97443.88;;;8.05;77.38
84143;BME280;74260;50.772;7.730;2024-03-02T01:16:45;97421.66;;;7.94;77.20
84143;BME280;74260;50.772;7.730;2024-03-02T01:17:16;97431.25;;;8.08;76.97
84143;BME280;74260;50.772;7.730;2024-03-02T01:17:46;97430.13;;;8.04;76.93
84143;BME280;74260;50.772;7.730;2024-03-02T01:18:16;97437.38;;;8.10;76.79
84143;BME280;74260;50.772;7.730;2024-03-02T01:18:47;97427.00;;;8.08;76.67
84143;BME280;74260;50.772;7.730;2024-03-02T01:19:17;97425.91;;;8.05;76.64
84143;BME280;74260;50.772;7.730;2024-03-02T01:19:48;97432.03;;;8.07;77.15
84143;BME280;74260;50.772;7.730;2024-03-02T01:20:19;97426.69;;;8.04;76.86
84143;BME280;74260;50.772;7.730;2024-03-02T01:20:50;97429.91;;;8.13;77.18
84143;BME280;74260;50.772;7.730;2024-03-02T01:21:26;97426.13;;;8.08;77.01
84143;BME280;74260;50.772;7.730;2024-03-02T01:21:56;97428.03;;;8.10;76.27
84143;BME280;74260;50.772;7.730;2024-03-02T01:22:27;97414.28;;;8.10;76.25
84143;BME280;74260;50.772;7.730;2024-03-02T01:22:57;97428.34;;;8.15;76.09
84143;BME280;74260;50.772;7.730;2024-03-02T01:23:28;97415.84;;;8.08;76.23
84143;BME280;74260;50.772;7.730;2024-03-02T01:23:59;97424.56;;;8.10;76.37
84143;BME280;74260;50.772;7.730;2024-03-02T01:24:30;97420.63;;;8.15;76.25
84143;BME280;74260;50.772;7.730;2024-03-02T01:25:00;97428.53;;;8.18;76.12
84143;BME280;74260;50.772;7.730;2024-03-02T01:25:30;97418.53;;;8.21;75.92
84143;BME280;74260;50.772;7.730;2024-03-02T01:26:02;97428.78;;;8.21;75.61
84143;BME280;74260;50.772;7.730;2024-03-02T01:26:33;97417.41;;;8.17;75.70
84143;BME280;74260;50.772;7.730;2024-03-02T01:27:05;97422.34;;;8.26;75.06
84143;BME280;74260;50.772;7.730;2024-03-02T01:27:35;97419.16;;;8.30;75.15
84143;BME280;74260;50.772;7.730;2024-03-02T01:28:06;97418.97;;;8.27;75.47
84143;BME280;74260;50.772;7.730;2024-03-02T01:28:36;97413.06;;;8.28;74.72
84143;BME280;74260;50.772;7.730;2024-03-02T01:29:06;97426.31;;;8.34;75.01
84143;BME280;74260;50.772;7.730;2024-03-02T01:29:37;97417.41;;;8.29;74.94
84143;BME280;74260;50.772;7.730;2024-03-02T01:30:08;97418.19;;;8.28;75.19
84143;BME280;74260;50.772;7.730;2024-03-02T01:30:38;97416.03;;;8.34;75.08
84143;BME280;74260;50.772;7.730;2024-03-02T01:31:09;97416.28;;;8.26;75.40
84143;BME280;74260;50.772;7.730;2024-03-02T01:31:39;97421.97;;;8.33;75.40
84143;BME280;74260;50.772;7.730;2024-03-02T01:32:12;97416.28;;;8.26;75.58
84143;BME280;74260;50.772;7.730;2024-03-02T01:32:42;97423.84;;;8.36;74.75
84143;BME280;74260;50.772;7.730;2024-03-02T01:33:13;97414.47;;;8.36;74.68
84143;BME280;74260;50.772;7.730;2024-03-02T01:33:43;97416.03;;;8.34;74.79
84143;BME280;74260;50.772;7.730;2024-03-02T01:34:14;97414.69;;;8.39;74.68
84143;BME280;74260;50.772;7.730;2024-03-02T01:34:44;97414.03;;;8.42;74.49
84143;BME280;74260;50.772;7.730;2024-03-02T01:35:14;97416.50;;;8.40;74.42
84143;BME280;74260;50.772;7.730;2024-03-02T01:35:45;97415.69;;;8.41;74.79
84143;BME280;74260;50.772;7.730;2024-03-02T01:36:15;97398.41;;;8.39;74.18
84143;BME280;74260;50.772;7.730;2024-03-02T01:36:46;97412.56;;;8.45;74.62
84143;BME280;74260;50.772;7.730;2024-03-02T01:37:17;97418.91;;;8.50;74.43
84143;BME280;74260;50.772;7.730;2024-03-02T01:37:47;97413.78;;;8.50;74.66
84143;BME280;74260;50.772;7.730;2024-03-02T01:38:17;97407.84;;;8.51;74.41
84143;BME280;74260;50.772;7.730;2024-03-02T01:38:48;97401.13;;;8.53;73.89
84143;BME280;74260;50.772;7.730;2024-03-02T01:39:18;97410.19;;;8.48;74.44
84143;BME280;74260;50.772;7.730;2024-03-02T01:39:49;97404.88;;;8.45;74.49
84143;BME280;74260;50.772;7.730;2024-03-02T01:40:19;97413.88;;;8.52;73.71
84143;BME280;74260;50.772;7.730;2024-03-02T01:40:51;97404.63;;;8.42;74.55
84143;BME280;74260;50.772;7.730;2024-03-02T01:41:22;97401.75;;;8.38;74.55
84143;BME280;74260;50.772;7.730;2024-03-02T01:41:52;97403.41;;;8.37;74.89
84143;BME280;74260;50.772;7.730;2024-03-02T01:42:22;97404.22;;;8.36;74.51
84143;BME280;74260;50.772;7.730;2024-03-02T01:42:53;97402.22;;;8.32;74.67
84143;BME280;74260;50.772;7.730;2024-03-02T01:43:30;97399.97;;;8.37;74.62
84143;BME280;74260;50.772;7.730;2024-03-02T01:44:00;97398.88;;;8.33;74.67
84143;BME280;74260;50.772;7.730;2024-03-02T01:44:30;97407.34;;;8.32;74.77
84143;BME280;74260;50.772;7.730;2024-03-02T01:45:01;97399.09;;;8.36;74.55
84143;BME280;74260;50.772;7.730;2024-03-02T01:45:33;97405.44;;;8.41;74.35
84143;BME280;74260;50.772;7.730;2024-03-02T01:46:03;97405.31;;;8.40;74.32
84143;BME280;74260;50.772;7.730;2024-03-02T01:46:34;97407.00;;;8.39;74.11
84143;BME280;74260;50.772;7.730;2024-03-02T01:47:05;97397.53;;;8.38;74.23
84143;BME280;74260;50.772;7.730;2024-03-02T01:47:35;97381.91;;;8.35;74.11
84143;BME280;74260;50.772;7.730;2024-03-02T01:48:06;97405.97;;;8.49;73.74
84143;BME280;74260;50.772;7.730;2024-03-02T01:48:37;97383.88;;;8.39;73.69
84143;BME280;74260;50.772;7.730;2024-03-02T01:49:08;97382.13;;;8.38;73.87
84143;BME280;74260;50.772;7.730;2024-03-02T01:49:38;97401.94;;;8.52;73.82
84143;BME280;74260;50.772;7.730;2024-03-02T01:50:14;97399.94;;;8.48;73.55
84143;BME280;74260;50.772;7.730;2024-03-02T01:50:44;97401.50;;;8.46;74.13
84143;BME280;74260;50.772;7.730;2024-03-02T01:51:15;97405.06;;;8.48;74.00
84143;BME280;74260;50.772;7.730;2024-03-02T01:51:45;97399.94;;;8.48;73.84
84143;BME280;74260;50.772;7.730;2024-03-02T01:52:16;97400.59;;;8.46;73.95
84143;BME280;74260;50.772;7.730;2024-03-02T01:52:46;97398.16;;;8.47;73.57
84143;BME280;74260;50.772;7.730;2024-03-02T01:53:17;97385.91;;;8.43;73.81
84143;BME280;74260;50.772;7.730;2024-03-02T01:53:47;97382.69;;;8.34;74.01
84143;BME280;74260;50.772;7.730;2024-03-02T01:54:19;97407.75;;;8.50;73.82
84143;BME280;74260;50.772;7.730;2024-03-02T01:54:49;97396.38;;;8.46;73.74
84143;BME280;74260;50.772;7.730;2024-03-02T01:55:20;97373.41;;;8.36;73.83
84143;BME280;74260;50.772;7.730;2024-03-02T01:55:51;97390.31;;;8.46;74.11
84143;BME280;74260;50.772;7.730;2024-03-02T01:56:22;97395.81;;;8.50;73.99
84143;BME280;74260;50.772;7.730;2024-03-02T01:56:53;97391.44;;;8.49;73.97
84143;BME280;74260;50.772;7.730;2024-03-02T01:57:23;97379.41;;;8.48;73.36
84143;BME280;74260;50.772;7.730;2024-03-02T01:57:54;97390.06;;;8.54;73.64
84143;BME280;74260;50.772;7.730;2024-03-02T01:58:24;97389.09;;;8.52;73.84
84143;BME280;74260;50.772;7.730;2024-03-02T01:58:54;97396.38;;;8.46;73.94
84143;BME280;74260;50.772;7.730;2024-03-02T01:59:25;97400.25;;;8.53;74.01
84143;BME280;74260;50.772;7.730;2024-03-02T01:59:55;97391.66;;;8.52;73.52
84143;BME280;74260;50.772;7.730;2024-03-02T02:00:27;97388.56;;;8.45;74.19
84143;BME280;74260;50.772;7.730;2024-03-02T02:00:58;97393.44;;;8.53;73.49
84143;BME280;74260;50.772;7.730;2024-03-02T02:01:28;97384.94;;;8.54;73.67
84143;BME280;74260;50.772;7.730;2024-03-02T02:01:59;97371.66;;;8.35;73.57
84143;BME280;74260;50.772;7.730;2024-03-02T02:02:31;97388.41;;;8.55;73.73
84143;BME280;74260;50.772;7.730;2024-03-02T02:03:02;97369.13;;;8.48;73.88
84143;BME280;74260;50.772;7.730;2024-03-02T02:03:32;97388.09;;;8.50;74.45
84143;BME280;74260;50.772;7.730;2024-03-02T02:04:03;97394.91;;;8.50;74.11
84143;BME280;74260;50.772;7.730;2024-03-02T02:04:33;97382.53;;;8.44;74.42
84143;BME280;74260;50.772;7.730;2024-03-02T02:05:04;97387.09;;;8.48;74.57
84143;BME280;74260;50.772;7.730;2024-03-02T02:05:35;97385.63;;;8.52;73.90
84143;BME280;74260;50.772;7.730;2024-03-02T02:06:05;97388.75;;;8.48;73.99
84143;BME280;74260;50.772;7.730;2024-03-02T02:06:35;97386.09;;;8.46;74.00
84143;BME280;74260;50.772;7.730;2024-03-02T02:07:06;97375.81;;;8.46;74.16
84143;BME280;74260;50.772;7.730;2024-03-02T02:07:36;97380.56;;;8.40;74.36
84143;BME280;74260;50.772;7.730;2024-03-02T02:08:07;97379.75;;;8.41;74.34
84143;BME280;74260;50.772;7.730;2024-03-02T02:08:38;97389.22;;;8.42;74.16
84143;BME280;74260;50.772;7.730;2024-03-02T02:09:09;97385.91;;;8.43;74.26
84143;BME280;74260;50.772;7.730;2024-03-02T02:09:42;97379.56;;;8.38;74.04
84143;BME280;74260;50.772;7.730;2024-03-02T02:10:13;97383.88;;;8.39;74.43
84143;BME280;74260;50.772;7.730;2024-03-02T02:10:43;97374.97;;;8.34;74.36
84143;BME280;74260;50.772;7.730;2024-03-02T02:11:15;97383.88;;;8.39;74.30
84143;BME280;74260;50.772;7.730;2024-03-02T02:11:45;97373.88;;;8.31;74.53
84143;BME280;74260;50.772;7.730;2024-03-02T02:12:16;97377.75;;;8.37;74.55
84143;BME280;74260;50.772;7.730;2024-03-02T02:12:46;97381.41;;;8.41;74.49
84143;BME280;74260;50.772;7.730;2024-03-02T02:13:18;97369.19;;;8.37;74.52
84143;BME280;74260;50.772;7.730;2024-03-02T02:13:48;97363.72;;;8.32;74.38
84143;BME280;74260;50.772;7.730;2024-03-02T02:14:18;97369.09;;;8.35;74.11
84143;BME280;74260;50.772;7.730;2024-03-02T02:14:49;97360.03;;;8.40;74.21
84143;BME280;74260;50.772;7.730;2024-03-02T02:15:28;97376.63;;;8.45;74.24
84143;BME280;74260;50.772;7.730;2024-03-02T02:16:08;97376.09;;;8.38;74.55
84143;BME280;74260;50.772;7.730;2024-03-02T02:16:40;97381.91;;;8.35;74.58
84143;BME280;74260;50.772;7.730;2024-03-02T02:17:10;97369.84;;;8.34;74.34
84143;BME280;74260;50.772;7.730;2024-03-02T02:17:41;97367.47;;;8.37;74.67
84143;BME280;74260;50.772;7.730;2024-03-02T02:18:11;97382.44;;;8.43;74.60
84143;BME280;74260;50.772;7.730;2024-03-02T02:18:42;97360.69;;;8.38;74.32
84143;BME280;74260;50.772;7.730;2024-03-02T02:19:12;97364.72;;;8.34;74.50
84143;BME280;74260;50.772;7.730;2024-03-02T02:19:44;97368.28;;;8.36;74.51
84143;BME280;74260;50.772;7.730;2024-03-02T02:20:18;97367.47;;;8.37;74.86
84143;BME280;74260;50.772;7.730;2024-03-02T02:20:49;97364.72;;;8.34;74.75
84143;BME280;74260;50.772;7.730;2024-03-02T02:21:22;97359.28;;;8.30;74.76
84143;BME280;74260;50.772;7.730;2024-03-02T02:21:53;97368.28;;;8.36;75.03
84143;BME280;74260;50.772;7.730;2024-03-02T02:22:23;97365.06;;;8.39;74.68
84143;BME280;74260;50.772;7.730;2024-03-02T02:23:03;97358.03;;;8.36;74.94
84143;BME280;74260;50.772;7.730;2024-03-02T02:23:34;97359.47;;;8.33;74.53
84143;BME280;74260;50.772;7.730;2024-03-02T02:24:05;97355.34;;;8.35;74.54
84143;BME280;74260;50.772;7.730;2024-03-02T02:24:35;97361.94;;;8.31;74.75
84143;BME280;74260;50.772;7.730;2024-03-02T02:25:07;97360.16;;;8.30;74.50
84143;BME280;74260;50.772;7.730;2024-03-02T02:25:37;97360.84;;;8.28;74.69
84143;BME280;74260;50.772;7.730;2024-03-02T02:26:09;97357.56;;;8.30;74.52
84143;BME280;74260;50.772;7.730;2024-03-02T02:26:39;97363.50;;;8.29;74.55
84143;BME280;74260;50.772;7.730;2024-03-02T02:27:11;97357.00;;;8.34;73.80
84143;BME280;74260;50.772;7.730;2024-03-02T02:27:44;97356.44;;;8.38;73.75
84143;BME280;74260;50.772;7.730;2024-03-02T02:28:17;97359.78;;;8.37;74.16
84143;BME280;74260;50.772;7.730;2024-03-02T02:28:48;97362.72;;;8.30;74.40
84143;BME280;74260;50.772;7.730;2024-03-02T02:29:19;97354.56;;;8.36;73.77
84143;BME280;74260;50.772;7.730;2024-03-02T02:29:51;97351.34;;;8.27;73.75
84143;BME280;74260;50.772;7.730;2024-03-02T02:30:26;97359.69;;;8.36;73.91
84143;BME280;74260;50.772;7.730;2024-03-02T02:30:57;97351.97;;;8.36;74.03
84143;BME280;74260;50.772;7.730;2024-03-02T02:31:37;97359.19;;;8.28;74.39
84143;BME280;74260;50.772;7.730;2024-03-02T02:32:09;97367.06;;;8.31;74.44
84143;BME280;74260;50.772;7.730;2024-03-02T02:32:39;97352.25;;;8.27;74.35
84143;BME280;74260;50.772;7.730;2024-03-02T02:33:10;97342.41;;;8.21;74.29
84143;BME280;74260;50.772;7.730;2024-03-02T02:33:41;97332.25;;;8.35;73.38
84143;BME280;74260;50.772;7.730;2024-03-02T02:34:14;97357.66;;;8.43;73.63
84143;BME280;74260;50.772;7.730;2024-03-02T02:34:44;97350.22;;;8.35;73.71
84143;BME280;74260;50.772;7.730;2024-03-02T02:35:15;97355.44;;;8.36;73.95
84143;BME280;74260;50.772;7.730;2024-03-02T02:35:45;97347.75;;;8.36;73.99
84143;BME280;74260;50.772;7.730;2024-03-02T02:36:17;97351.97;;;8.36;74.16
84143;BME280;74260;50.772;7.730;2024-03-02T02:36:47;97356.25;;;8.35;73.97
84143;BME280;74260;50.772;7.730;2024-03-02T02:37:18;97356.91;;;8.33;74.02
84143;BME280;74260;50.772;7.730;2024-03-02T02:37:49;97351.47;;;8.28;74.38
84143;BME280;74260;50.772;7.730;2024-03-02T02:38:20;97357.38;;;8.27;74.26
84143;BME280;74260;50.772;7.730;2024-03-02T02:38:51;97347.44;;;8.20;74.63
84143;BME280;74260;50.772;7.730;2024-03-02T02:39:22;97340.63;;;8.20;74.51
84143;BME280;74260;50.772;7.730;2024-03-02T02:39:52;97337.78;;;8.16;74.53
84143;BME280;74260;50.772;7.730;2024-03-02T02:40:23;97347.66;;;8.23;74.54
84143;BME280;74260;50.772;7.730;2024-03-02T02:40:53;97364.31;;;8.28;74.54
84143;BME280;74260;50.772;7.730;2024-03-02T02:41:24;97351.56;;;8.18;74.48
84143;BME280;74260;50.772;7.730;2024-03-02T02:41:54;97351.88;;;8.34;74.61
84143;BME280;74260;50.772;7.730;2024-03-02T02:42:24;97354.03;;;8.28;74.53
84143;BME280;74260;50.772;7.730;2024-03-02T02:42:55;97356.72;;;8.30;74.44
84143;BME280;74260;50.772;7.730;2024-03-02T02:43:27;97363.81;;;8.34;74.28
84143;BME280;74260;50.772;7.730;2024-03-02T02:43:57;97357.22;;;8.37;74.11
84143;BME280;74260;50.772;7.730;2024-03-02T02:44:28;97363.25;;;8.38;74.19
84143;BME280;74260;50.772;7.730;2024-03-02T02:44:58;97350.47;;;8.26;74.13
84143;BME280;74260;50.772;7.730;2024-03-02T02:45:28;97350.41;;;8.38;74.13
84143;BME280;74260;50.772;7.730;2024-03-02T02:45:59;97356.38;;;8.25;74.69
84143;BME280;74260;50.772;7.730;2024-03-02T02:46:29;97357.81;;;8.21;74.84
84143;BME280;74260;50.772;7.730;2024-03-02T02:47:00;97357.16;;;8.24;75.15
84143;BME280;74260;50.772;7.730;2024-03-02T02:47:30;97359.84;;;8.26;74.98
84143;BME280;74260;50.772;7.730;2024-03-02T02:48:00;97365.28;;;8.30;74.76
84143;BME280;74260;50.772;7.730;2024-03-02T02:48:32;97359.84;;;8.26;74.96
84143;BME280;74260;50.772;7.730;2024-03-02T02:49:03;97372.56;;;8.24;75.19
84143;BME280;74260;50.772;7.730;2024-03-02T02:49:33;97367.63;;;8.27;75.08
84143;BME280;74260;50.772;7.730;2024-03-02T02:50:04;97358.69;;;8.22;75.17
84143;BME280;74260;50.772;7.730;2024-03-02T02:50:35;97368.75;;;8.19;75.50
84143;BME280;74260;50.772;7.730;2024-03-02T02:51:05;97367.56;;;8.14;75.79
84143;BME280;74260;50.772;7.730;2024-03-02T02:51:36;97366.44;;;8.10;76.03